Time;durP1;ratioP1;P1;durP2;ratioP2;P2;SDS_P1;SDS_P2;PMS_P1;PMS_P2;Temp;Humidity;BMP_temperature;BMP_pressure;BME280_temperature;BME280_humidity;BME280_pressure;Samples;Min_cycle;Max_cycle;Signal;HPM_P1;HPM_P2
2022/11/10 00:00:27;;;;;;;4.60;1.27;;;15.80;86.40;;;;;;5064782;28;20027;-76
2022/11/10 00:02:53;;;;;;;2.75;1.20;;;15.80;86.50;;;;;;5066232;28;20036;-76
2022/11/10 00:05:18;;;;;;;4.28;1.33;;;15.80;86.50;;;;;;5077971;28;20029;-76
2022/11/10 00:07:44;;;;;;;3.08;1.40;;;15.80;86.60;;;;;;5076657;28;20388;-77
2022/11/10 00:10:09;;;;;;;3.45;1.10;;;15.80;86.60;;;;;;5075951;28;20395;-75
2022/11/10 00:12:35;;;;;;;4.00;1.38;;;15.80;86.70;;;;;;5084286;28;20020;-75
2022/11/10 00:17:45;;;;;;;2.40;1.10;;;15.70;86.60;;;;;;5077160;28;20055;-75
2022/11/10 00:20:11;;;;;;;3.50;1.17;;;15.70;86.70;;;;;;5048603;28;20475;-77
2022/11/10 00:22:38;;;;;;;3.15;1.13;;;15.70;86.70;;;;;;5062560;28;20027;-75
2022/11/10 00:25:05;;;;;;;2.75;1.20;;;15.70;86.70;;;;;;5074638;28;20028;-76
2022/11/10 00:27:34;;;;;;;2.00;0.90;;;15.70;86.70;;;;;;5076273;28;20051;-75
2022/11/10 00:30:00;;;;;;;4.20;1.20;;;15.70;86.70;;;;;;5056573;28;20486;-75
2022/11/10 00:32:25;;;;;;;3.08;1.00;;;15.70;86.80;;;;;;5065321;28;20027;-78
2022/11/10 00:34:51;;;;;;;6.05;1.50;;;15.70;86.80;;;;;;5067452;28;20029;-75
2022/11/10 00:37:17;;;;;;;3.38;1.40;;;15.70;86.70;;;;;;5071480;28;20039;-76
2022/11/10 00:39:43;;;;;;;3.58;0.90;;;15.70;86.60;;;;;;5066736;28;20034;-75
2022/11/10 00:42:09;;;;;;;2.65;1.05;;;15.70;86.70;;;;;;5075503;28;20043;-77
2022/11/10 00:44:34;;;;;;;4.13;1.20;;;15.70;86.60;;;;;;5081650;28;20028;-76
2022/11/10 00:47:00;;;;;;;3.55;1.15;;;15.70;86.40;;;;;;5087636;28;20036;-78
2022/11/10 00:49:26;;;;;;;4.00;1.10;;;15.80;86.40;;;;;;5046865;28;20020;-76
2022/11/10 00:51:51;;;;;;;3.47;1.00;;;15.80;86.30;;;;;;5073596;28;20765;-76
2022/11/10 00:54:17;;;;;;;3.83;1.15;;;15.80;86.20;;;;;;5069169;28;20020;-77
2022/11/10 00:56:43;;;;;;;2.47;0.90;;;15.80;86.20;;;;;;5085775;28;20403;-76
2022/11/10 00:59:08;;;;;;;2.30;0.85;;;15.80;86.10;;;;;;5071846;28;20036;-76
2022/11/10 01:01:34;;;;;;;3.78;1.23;;;15.80;86.20;;;;;;5057518;28;20036;-76
2022/11/10 01:03:59;;;;;;;3.13;1.08;;;15.80;86.30;;;;;;5083074;28;20032;-77
2022/11/10 01:06:25;;;;;;;3.10;1.20;;;15.80;86.40;;;;;;5077064;28;20033;-75
2022/11/10 01:08:50;;;;;;;3.88;1.20;;;15.80;86.40;;;;;;5055535;28;20615;-76
2022/11/10 01:11:22;;;;;;;3.00;1.30;;;15.80;86.50;;;;;;5074668;28;20051;-76
2022/11/10 01:13:52;;;;;;;3.15;1.13;;;15.80;86.50;;;;;;5066993;28;20020;-75
2022/11/10 01:16:21;;;;;;;2.30;1.02;;;15.70;86.50;;;;;;5066860;28;20024;-76
2022/11/10 01:19:04;;;;;;;2.88;1.30;;;15.70;86.60;;;;;;5070757;28;20052;-75
2022/11/10 01:21:30;;;;;;;3.67;1.27;;;15.70;86.50;;;;;;5065123;28;20103;-75
2022/11/10 01:23:56;;;;;;;4.32;1.17;;;15.70;86.70;;;;;;5059954;28;20123;-75
2022/11/10 01:26:22;;;;;;;3.50;0.98;;;15.70;86.60;;;;;;5069672;28;20020;-75
2022/11/10 01:28:48;;;;;;;3.40;1.10;;;15.70;86.70;;;;;;5064447;28;20029;-78
2022/11/10 01:31:17;;;;;;;2.78;1.25;;;15.70;86.70;;;;;;5072894;28;20044;-75
2022/11/10 01:33:43;;;;;;;3.33;1.13;;;15.70;86.70;;;;;;5058117;28;20031;-76
2022/11/10 01:36:10;;;;;;;2.85;1.00;;;15.70;86.70;;;;;;5081503;28;20036;-77
2022/11/10 01:38:38;;;;;;;3.30;1.10;;;15.70;86.70;;;;;;5079355;28;20039;-77
2022/11/10 01:41:06;;;;;;;3.72;1.27;;;15.70;86.80;;;;;;5068538;28;20167;-76
2022/11/10 01:43:32;;;;;;;4.70;1.10;;;15.70;86.80;;;;;;5080454;28;20487;-75
2022/11/10 01:46:00;;;;;;;3.58;1.20;;;15.70;86.70;;;;;;5070711;28;20090;-77
2022/11/10 01:48:48;;;;;;;2.50;1.00;;;15.70;86.80;;;;;;5068151;28;20044;-77
2022/11/10 01:51:21;;;;;;;3.05;1.30;;;15.70;86.70;;;;;;5083958;28;20465;-77
2022/11/10 01:53:51;;;;;;;3.75;1.10;;;15.70;86.70;;;;;;5075832;28;20023;-75
2022/11/10 01:56:18;;;;;;;3.70;1.05;;;15.70;86.60;;;;;;5091121;28;20032;-77
2022/11/10 01:58:49;;;;;;;3.63;1.02;;;15.70;86.50;;;;;;5072259;28;20032;-76
2022/11/10 02:01:15;;;;;;;3.60;1.15;;;15.70;86.40;;;;;;5072598;28;20021;-79
2022/11/10 02:03:50;;;;;;;4.00;1.30;;;15.80;86.40;;;;;;5070014;28;20047;-74
2022/11/10 02:06:18;;;;;;;2.95;0.98;;;15.80;86.30;;;;;;5090619;28;20281;-75
2022/11/10 02:08:45;;;;;;;2.33;0.82;;;15.80;86.20;;;;;;5090635;28;20039;-77
2022/11/10 02:11:12;;;;;;;4.18;1.25;;;15.80;86.30;;;;;;5064079;28;20102;-76
2022/11/10 02:13:39;;;;;;;3.58;1.10;;;15.80;86.30;;;;;;5070043;28;20383;-75
2022/11/10 02:16:04;;;;;;;2.50;0.90;;;15.70;86.30;;;;;;5070084;28;20496;-75
2022/11/10 02:18:30;;;;;;;3.28;1.13;;;15.70;86.40;;;;;;5051834;28;20067;-76
2022/11/10 02:20:55;;;;;;;3.65;1.00;;;15.70;86.50;;;;;;5057604;28;20033;-78
2022/11/10 02:23:30;;;;;;;3.45;1.08;;;15.70;86.50;;;;;;5063527;28;20028;-76
2022/11/10 02:25:57;;;;;;;4.32;1.45;;;15.70;86.60;;;;;;5068647;28;20074;-78
2022/11/10 02:28:23;;;;;;;3.38;1.20;;;15.70;86.70;;;;;;5085730;28;20031;-75
2022/11/10 02:30:50;;;;;;;3.00;1.25;;;15.70;86.70;;;;;;5064891;28;20028;-78
2022/11/10 02:33:18;;;;;;;3.35;1.05;;;15.70;86.70;;;;;;5051935;28;20082;-75
2022/11/10 02:35:44;;;;;;;3.38;1.00;;;15.70;86.80;;;;;;5052062;28;20043;-75
2022/11/10 02:38:10;;;;;;;3.17;1.10;;;15.70;86.70;;;;;;5050949;28;20082;-76
2022/11/10 02:40:36;;;;;;;3.55;1.10;;;15.70;86.80;;;;;;5047974;28;20767;-75
2022/11/10 02:43:03;;;;;;;2.60;1.27;;;15.70;86.80;;;;;;5032088;28;20496;-75
2022/11/10 02:45:28;;;;;;;2.88;1.00;;;15.70;86.80;;;;;;5052444;28;20100;-76
2022/11/10 02:47:54;;;;;;;3.97;1.27;;;15.70;86.90;;;;;;5051637;28;20116;-76
2022/11/10 02:50:19;;;;;;;2.88;1.13;;;15.70;86.90;;;;;;5063177;28;20060;-74
2022/11/10 02:52:45;;;;;;;2.33;1.00;;;15.70;86.90;;;;;;5031655;28;20056;-76
2022/11/10 02:55:10;;;;;;;3.35;1.15;;;15.70;86.90;;;;;;5031369;28;20025;-75
2022/11/10 02:57:36;;;;;;;3.90;1.10;;;15.70;86.90;;;;;;5049716;28;20435;-76
2022/11/10 03:00:04;;;;;;;2.97;1.30;;;15.70;86.90;;;;;;5046814;28;20631;-77
2022/11/10 03:02:29;;;;;;;2.58;1.05;;;15.70;86.90;;;;;;5051175;28;20044;-76
2022/11/10 03:04:55;;;;;;;2.92;1.10;;;15.70;86.80;;;;;;5068916;28;20031;-75
2022/11/10 03:07:20;;;;;;;3.40;1.10;;;15.70;86.70;;;;;;5068762;28;20040;-75
2022/11/10 03:09:46;;;;;;;2.05;1.10;;;15.70;86.60;;;;;;5048430;28;20028;-79
2022/11/10 03:12:11;;;;;;;2.88;1.20;;;15.70;86.50;;;;;;5069274;28;20512;-75
2022/11/10 03:14:37;;;;;;;3.50;1.20;;;15.70;86.40;;;;;;5069426;28;20031;-77
2022/11/10 03:17:02;;;;;;;2.92;1.00;;;15.80;86.30;;;;;;5068806;28;20412;-76
2022/11/10 03:19:28;;;;;;;3.60;1.10;;;15.80;86.30;;;;;;5066462;28;20028;-76
2022/11/10 03:21:53;;;;;;;2.88;1.00;;;15.80;86.40;;;;;;5060055;28;20039;-76
2022/11/10 03:24:19;;;;;;;2.72;1.10;;;15.70;86.40;;;;;;5051086;28;20032;-76
2022/11/10 03:26:44;;;;;;;3.90;1.30;;;15.70;86.40;;;;;;5050722;28;20060;-75
2022/11/10 03:29:10;;;;;;;3.10;1.35;;;15.70;86.50;;;;;;5068084;28;20502;-76
2022/11/10 03:31:35;;;;;;;3.30;1.25;;;15.60;86.50;;;;;;5054937;28;20028;-78
2022/11/10 03:34:01;;;;;;;2.90;1.20;;;15.70;86.70;;;;;;5050788;28;20032;-75
2022/11/10 03:36:26;;;;;;;2.63;1.00;;;15.70;86.70;;;;;;5050761;28;20059;-77
2022/11/10 03:38:52;;;;;;;1.92;1.08;;;15.70;86.80;;;;;;5050510;28;20020;-76
2022/11/10 03:41:17;;;;;;;2.78;1.15;;;15.70;86.80;;;;;;5033345;28;20409;-76
2022/11/10 03:43:43;;;;;;;2.75;1.27;;;15.70;87.30;;;;;;5064944;28;20103;-76
2022/11/10 03:46:08;;;;;;;2.80;1.05;;;15.70;86.80;;;;;;5047712;28;20704;-75
2022/11/10 03:48:34;;;;;;;3.10;1.05;;;15.60;86.70;;;;;;5068202;28;20052;-76
2022/11/10 03:50:59;;;;;;;3.10;1.30;;;15.70;86.70;;;;;;5067339;28;20020;-75
2022/11/10 03:53:25;;;;;;;3.10;1.30;;;15.70;86.80;;;;;;5068064;28;20025;-76
2022/11/10 03:55:50;;;;;;;2.47;1.23;;;15.70;86.80;;;;;;5068011;28;20031;-77
2022/11/10 03:58:16;;;;;;;3.35;1.30;;;15.70;86.80;;;;;;5050396;28;20360;-76
2022/11/10 04:00:42;;;;;;;3.20;1.30;;;15.70;86.80;;;;;;5049601;28;20082;-76
2022/11/10 04:03:07;;;;;;;2.95;1.10;;;15.70;86.80;;;;;;5050574;28;20539;-75
2022/11/10 04:11:02;;;;;;;1.80;0.95;;;15.70;86.90;;;;;;5060910;28;20036;-75
2022/11/10 04:16:12;;;;;;;4.32;1.40;;;15.70;86.90;;;;;;5057391;28;20047;-79
2022/11/10 04:18:38;;;;;;;3.50;1.20;;;15.70;87.10;;;;;;5067904;28;20032;-75
2022/11/10 04:21:03;;;;;;;3.10;1.08;;;15.70;86.50;;;;;;5045923;28;20021;-77
2022/11/10 04:23:33;;;;;;;3.35;1.20;;;15.70;86.50;;;;;;5055425;28;20032;-77
2022/11/10 04:28:57;;;;;;;3.03;1.10;;;15.80;86.50;;;;;;5068029;28;20862;-74
2022/11/10 04:31:24;;;;;;;3.75;1.10;;;15.70;86.40;;;;;;5071325;28;20061;-75
2022/11/10 04:33:51;;;;;;;3.63;1.30;;;15.80;86.60;;;;;;5069019;28;20132;-75
2022/11/10 04:36:19;;;;;;;3.45;1.20;;;15.70;86.60;;;;;;5067408;28;20024;-74
2022/11/10 04:38:45;;;;;;;3.25;1.10;;;15.70;86.70;;;;;;5067796;28;20442;-73
2022/11/10 04:41:11;;;;;;;2.92;1.23;;;15.70;86.70;;;;;;5045860;28;20029;-73
2022/11/10 04:43:37;;;;;;;3.97;1.60;;;15.70;86.70;;;;;;5047722;28;20035;-74
2022/11/10 04:46:04;;;;;;;3.58;1.40;;;15.70;86.80;;;;;;5055775;28;20040;-74
2022/11/10 04:48:31;;;;;;;3.38;1.10;;;15.70;86.80;;;;;;5067454;28;20103;-73
2022/11/10 04:51:01;;;;;;;3.42;1.23;;;15.70;86.90;;;;;;5068255;28;20024;-73
2022/11/10 04:53:26;;;;;;;3.53;1.38;;;15.70;87.00;;;;;;5075938;28;20024;-74
2022/11/10 04:55:52;;;;;;;2.38;0.95;;;15.70;87.00;;;;;;5069650;28;20024;-73
2022/11/10 04:58:18;;;;;;;3.05;1.40;;;15.70;87.00;;;;;;5087710;28;20066;-74
2022/11/10 05:00:43;;;;;;;2.38;1.10;;;15.70;87.00;;;;;;5058097;28;20028;-74
2022/11/10 05:03:11;;;;;;;2.67;1.00;;;15.70;87.00;;;;;;5070623;28;20089;-74
2022/11/10 05:05:36;;;;;;;3.65;1.30;;;15.70;87.10;;;;;;5053457;28;20057;-73
2022/11/10 05:08:03;;;;;;;2.33;1.13;;;15.70;87.10;;;;;;5053779;28;20056;-74
2022/11/10 05:10:28;;;;;;;3.00;1.20;;;15.60;87.00;;;;;;5067525;28;20028;-74
2022/11/10 05:12:55;;;;;;;2.33;1.08;;;15.70;87.10;;;;;;5064716;28;20024;-73
2022/11/10 05:15:21;;;;;;;3.13;1.10;;;15.70;87.10;;;;;;5071428;28;20021;-75
2022/11/10 05:17:49;;;;;;;2.83;1.20;;;15.60;87.00;;;;;;5070328;28;20028;-73
2022/11/10 05:20:15;;;;;;;3.25;1.30;;;15.70;87.10;;;;;;5070451;28;20040;-78
2022/11/10 05:23:36;;;;;;;1.77;0.90;;;15.70;87.10;;;;;;5077700;28;20055;-82
2022/11/10 05:25:34;;;;;;;1.90;0.95;;;15.70;87.00;;;;;;5078342;28;20135;-76
2022/11/10 05:28:00;;;;;;;3.22;1.30;;;15.70;86.90;;;;;;5074391;28;20487;-75
2022/11/10 05:30:26;;;;;;;2.33;1.20;;;15.70;86.80;;;;;;5062861;28;20028;-76
2022/11/10 05:32:51;;;;;;;1.90;1.05;;;15.70;86.70;;;;;;5072047;28;20024;-73
2022/11/10 05:35:17;;;;;;;2.50;1.10;;;15.70;86.50;;;;;;5055686;28;20032;-74
2022/11/10 05:37:42;;;;;;;2.83;0.90;;;15.80;86.60;;;;;;5053527;28;20035;-74
2022/11/10 05:40:08;;;;;;;2.92;1.30;;;15.70;86.50;;;;;;5053297;28;20036;-73
2022/11/10 05:42:42;;;;;;;4.07;1.10;;;15.70;86.50;;;;;;5067366;28;20039;-74
2022/11/10 05:45:08;;;;;;;3.00;1.40;;;15.70;86.70;;;;;;5079341;28;20032;-75
2022/11/10 05:47:36;;;;;;;2.63;1.20;;;15.70;86.70;;;;;;5071312;28;20020;-78
2022/11/10 05:50:01;;;;;;;3.20;1.10;;;15.70;86.80;;;;;;5053097;28;20024;-75
2022/11/10 05:52:27;;;;;;;2.78;1.17;;;15.70;86.80;;;;;;5053776;28;20031;-78
2022/11/10 05:54:54;;;;;;;3.35;1.50;;;15.70;86.90;;;;;;5069777;28;20028;-74
2022/11/10 05:57:20;;;;;;;2.10;1.10;;;15.70;86.90;;;;;;5070343;28;20131;-77
2022/11/10 05:59:45;;;;;;;2.35;1.08;;;15.70;87.00;;;;;;5071532;28;20044;-77
2022/11/10 06:02:11;;;;;;;2.13;1.10;;;15.70;87.10;;;;;;5054699;28;20028;-77
2022/11/10 06:04:37;;;;;;;2.33;1.10;;;15.70;87.10;;;;;;5072098;28;20044;-73
2022/11/10 06:07:02;;;;;;;1.85;0.90;;;15.70;87.10;;;;;;5052611;28;20028;-74
2022/11/10 06:09:28;;;;;;;2.38;1.00;;;15.70;87.10;;;;;;5053018;28;20067;-75
2022/11/10 06:11:54;;;;;;;2.85;1.00;;;15.60;87.10;;;;;;5071622;28;20391;-75
2022/11/10 06:14:19;;;;;;;4.15;1.40;;;15.60;87.10;;;;;;5047222;28;20899;-79
2022/11/10 06:16:47;;;;;;;2.95;1.20;;;15.60;87.10;;;;;;5068987;28;20380;-78
2022/11/10 06:19:13;;;;;;;2.85;1.13;;;15.60;87.20;;;;;;5040741;28;20044;-75
2022/11/10 06:21:38;;;;;;;3.65;1.40;;;15.60;87.10;;;;;;5075881;28;20467;-77
2022/11/10 06:24:04;;;;;;;2.42;1.05;;;15.60;87.10;;;;;;5059141;28;20044;-75
2022/11/10 06:26:30;;;;;;;2.88;1.13;;;15.60;87.10;;;;;;5052101;28;20399;-78
2022/11/10 06:28:56;;;;;;;2.20;1.10;;;15.60;87.10;;;;;;5072055;28;20024;-75
2022/11/10 06:31:22;;;;;;;3.38;1.20;;;15.60;87.10;;;;;;5060501;28;20024;-80
2022/11/10 06:33:48;;;;;;;1.98;1.20;;;15.70;87.10;;;;;;5056015;28;20031;-77
2022/11/10 06:36:14;;;;;;;1.65;1.00;;;15.60;87.00;;;;;;5051810;28;20033;-76
2022/11/10 06:38:40;;;;;;;1.98;1.00;;;15.70;86.90;;;;;;5067981;28;20040;-77
2022/11/10 06:41:05;;;;;;;2.55;1.30;;;15.70;86.80;;;;;;5066816;28;20033;-74
2022/11/10 06:43:31;;;;;;;3.70;1.17;;;15.70;86.70;;;;;;5064218;28;20059;-75
2022/11/10 06:45:56;;;;;;;3.30;1.52;;;15.70;86.50;;;;;;5054479;28;20053;-77
2022/11/10 06:48:22;;;;;;;2.90;1.27;;;15.70;86.40;;;;;;5069543;28;20021;-75
2022/11/10 06:50:47;;;;;;;2.85;1.10;;;15.70;86.40;;;;;;5057385;28;20033;-75
2022/11/10 06:53:13;;;;;;;3.47;1.33;;;15.70;86.50;;;;;;5064253;28;20392;-77
2022/11/10 06:55:38;;;;;;;3.50;1.30;;;15.70;86.60;;;;;;5048613;28;20524;-77
2022/11/10 06:58:04;;;;;;;4.60;1.50;;;15.70;86.70;;;;;;5048890;28;20037;-75
2022/11/10 07:00:30;;;;;;;4.20;1.45;;;15.60;86.70;;;;;;5048275;28;20033;-75
2022/11/10 07:03:07;;;;;;;3.60;1.30;;;15.50;86.60;;;;;;5067474;28;20122;-75
2022/11/10 07:05:34;;;;;;;3.22;1.25;;;15.70;86.80;;;;;;5056926;28;20037;-75
2022/11/10 07:08:17;;;;;;;3.60;1.38;;;15.70;86.80;;;;;;5047748;28;20120;-75
2022/11/10 07:10:53;;;;;;;3.85;1.58;;;15.70;86.80;;;;;;5043345;28;20506;-74
2022/11/10 07:13:19;;;;;;;2.47;1.27;;;15.60;86.90;;;;;;5060102;28;20020;-78
2022/11/10 07:15:45;;;;;;;2.90;1.35;;;15.70;87.00;;;;;;5074771;28;20551;-75
2022/11/10 07:18:11;;;;;;;2.88;1.40;;;15.60;86.90;;;;;;5068123;28;20028;-76
2022/11/10 07:20:37;;;;;;;3.72;1.50;;;15.70;87.00;;;;;;5064276;28;20029;-75
2022/11/10 07:23:04;;;;;;;4.25;1.48;;;15.60;86.90;;;;;;5037690;28;20500;-78
2022/11/10 07:25:34;;;;;;;4.07;1.23;;;15.60;87.00;;;;;;5030931;28;20052;-75
2022/11/10 07:28:01;;;;;;;4.75;1.50;;;15.60;86.80;;;;;;5029562;28;20033;-76
2022/11/10 07:30:28;;;;;;;4.93;1.40;;;15.60;86.80;;;;;;5046464;28;20036;-75
2022/11/10 07:33:09;;;;;;;3.03;1.50;;;15.60;86.60;;;;;;5028617;28;20021;-75
2022/11/10 07:35:35;;;;;;;5.13;1.73;;;15.60;86.80;;;;;;5056957;28;20025;-74
2022/11/10 07:38:04;;;;;;;4.65;1.70;;;15.60;86.70;;;;;;5060880;28;20024;-74
2022/11/10 07:40:30;;;;;;;5.90;1.60;;;15.60;86.70;;;;;;5044141;28;20060;-76
2022/11/10 07:42:56;;;;;;;4.63;1.60;;;15.70;86.70;;;;;;5055406;28;20039;-75
2022/11/10 07:45:21;;;;;;;3.30;1.67;;;15.70;86.70;;;;;;5058538;28;20458;-79
2022/11/10 07:47:47;;;;;;;3.75;1.70;;;15.70;86.50;;;;;;5048583;28;20064;-76
2022/11/10 07:50:12;;;;;;;3.95;1.30;;;15.70;86.50;;;;;;5062116;28;20087;-76
2022/11/10 07:52:38;;;;;;;5.00;1.83;;;15.70;86.40;;;;;;5048355;28;20066;-74
2022/11/10 07:55:05;;;;;;;3.58;1.67;;;15.70;86.30;;;;;;5051543;28;20031;-74
2022/11/10 07:57:32;;;;;;;4.47;1.63;;;15.60;86.20;;;;;;5055718;28;20027;-75
2022/11/10 07:59:58;;;;;;;3.92;1.50;;;15.70;86.30;;;;;;5056561;28;20029;-75
2022/11/10 08:02:23;;;;;;;4.40;1.80;;;15.70;86.30;;;;;;5046732;28;20039;-77
2022/11/10 08:04:49;;;;;;;4.80;1.80;;;15.70;86.40;;;;;;5057026;28;20037;-76
2022/11/10 08:07:14;;;;;;;3.50;1.50;;;15.70;86.50;;;;;;5048858;28;20024;-76
2022/11/10 08:09:40;;;;;;;4.05;1.80;;;15.70;86.60;;;;;;5053461;28;20028;-77
2022/11/10 08:12:05;;;;;;;3.92;1.70;;;15.60;86.60;;;;;;5049723;28;20021;-78
2022/11/10 08:14:31;;;;;;;4.53;1.85;;;15.70;86.70;;;;;;5050646;28;20135;-77
2022/11/10 08:16:56;;;;;;;3.08;1.45;;;15.70;86.70;;;;;;5068800;28;20032;-77
2022/11/10 08:19:22;;;;;;;4.15;1.80;;;15.70;86.70;;;;;;5054593;28;20032;-78
2022/11/10 08:21:47;;;;;;;3.53;1.70;;;15.70;86.70;;;;;;5050486;28;20142;-75
2022/11/10 08:24:13;;;;;;;4.90;1.70;;;15.70;86.80;;;;;;5059578;28;20032;-75
2022/11/10 08:26:38;;;;;;;3.55;1.70;;;15.70;86.70;;;;;;5068209;28;20036;-80
2022/11/10 08:29:04;;;;;;;4.85;2.00;;;15.80;86.70;;;;;;5055824;28;20072;-79
2022/11/10 08:31:31;;;;;;;4.80;1.67;;;15.90;86.70;;;;;;5058898;28;20055;-82
2022/11/10 08:33:57;;;;;;;4.20;1.80;;;15.80;86.60;;;;;;5059110;28;20021;-80
2022/11/10 08:36:23;;;;;;;5.15;1.92;;;15.80;86.50;;;;;;5056204;28;20035;-79
2022/11/10 08:38:48;;;;;;;3.78;1.60;;;15.80;86.50;;;;;;5049868;28;20032;-79
2022/11/10 08:41:14;;;;;;;3.65;1.70;;;15.80;86.50;;;;;;5049968;28;20032;-80
2022/11/10 08:43:40;;;;;;;4.32;1.70;;;15.80;86.40;;;;;;5050826;28;20034;-79
2022/11/10 08:46:06;;;;;;;5.30;2.00;;;15.80;86.50;;;;;;5049721;28;20032;-80
2022/11/10 08:48:32;;;;;;;4.32;1.80;;;15.80;86.50;;;;;;5050317;28;20035;-79
2022/11/10 08:50:59;;;;;;;4.03;1.70;;;15.80;86.50;;;;;;5065050;28;20020;-82
2022/11/10 08:53:24;;;;;;;3.33;1.65;;;15.70;86.50;;;;;;5071126;28;20074;-80
2022/11/10 08:55:51;;;;;;;4.15;1.83;;;15.80;86.50;;;;;;5055768;28;20028;-78
2022/11/10 08:58:19;;;;;;;3.65;1.50;;;15.70;86.40;;;;;;5070519;28;20569;-81
2022/11/10 09:00:45;;;;;;;3.70;1.85;;;15.80;86.50;;;;;;5055482;28;20028;-82
2022/11/10 09:03:17;;;;;;;4.70;1.77;;;15.80;86.40;;;;;;5061079;28;20028;-82
2022/11/10 09:05:44;;;;;;;5.43;1.98;;;15.80;86.40;;;;;;5051628;28;20031;-76
2022/11/10 09:08:10;;;;;;;3.45;1.55;;;15.80;86.30;;;;;;5042640;28;20490;-77
2022/11/10 09:10:39;;;;;;;4.15;1.40;;;15.70;86.10;;;;;;5051975;28;20141;-77
2022/11/10 09:13:05;;;;;;;4.30;1.77;;;15.90;86.10;;;;;;5045202;28;20029;-78
2022/11/10 09:15:32;;;;;;;4.22;1.65;;;15.80;86.50;;;;;;5046006;28;20396;-76
2022/11/10 09:17:59;;;;;;;4.13;1.65;;;15.90;86.10;;;;;;5065275;28;20502;-76
2022/11/10 09:20:26;;;;;;;4.50;1.80;;;15.90;86.10;;;;;;5057683;28;20035;-76
2022/11/10 09:22:52;;;;;;;3.25;1.70;;;15.90;86.00;;;;;;5062378;28;20033;-77
2022/11/10 09:25:18;;;;;;;4.38;1.40;;;15.90;85.90;;;;;;5046070;28;20040;-78
2022/11/10 09:27:43;;;;;;;5.40;1.70;;;15.90;85.80;;;;;;5052379;28;20043;-84
2022/11/10 09:30:09;;;;;;;3.50;1.55;;;16.00;86.40;;;;;;5045427;28;20051;-81
2022/11/10 09:32:35;;;;;;;59.28;6.00;;;16.00;85.70;;;;;;5069034;28;20458;-79
2022/11/10 09:35:01;;;;;;;37.45;6.78;;;16.00;84.70;;;;;;5069126;28;20032;-79
2022/11/10 09:37:27;;;;;;;21.33;5.00;;;16.00;82.10;;;;;;5055562;28;20292;-80
2022/11/10 09:39:53;;;;;;;13.80;4.38;;;15.90;80.20;;;;;;5050689;28;20075;-82
2022/11/10 09:42:35;;;;;;;14.68;4.30;;;15.70;79.90;;;;;;5059477;28;20028;-80
2022/11/10 09:45:09;;;;;;;17.88;5.05;;;15.70;79.80;;;;;;5067256;28;20459;-79
2022/11/10 09:47:46;;;;;;;13.48;4.70;;;15.70;80.10;;;;;;5067205;28;20086;-78
2022/11/10 09:50:24;;;;;;;13.82;4.63;;;15.70;80.10;;;;;;5046906;28;20024;-76
2022/11/10 09:52:52;;;;;;;16.17;4.70;;;15.70;80.20;;;;;;5040432;28;20025;-76
2022/11/10 09:55:29;;;;;;;18.65;4.75;;;15.80;79.90;;;;;;5069598;28;20418;-77
2022/11/10 09:57:56;;;;;;;17.02;4.38;;;15.80;79.80;;;;;;5062862;28;20036;-76
2022/11/10 10:00:22;;;;;;;14.82;4.18;;;15.80;79.60;;;;;;5059778;28;20116;-76
2022/11/10 10:02:54;;;;;;;12.43;4.28;;;15.90;79.60;;;;;;5038655;28;20029;-76
2022/11/10 10:05:38;;;;;;;12.15;3.97;;;15.90;79.50;;;;;;5059563;28;20031;-74
2022/11/10 10:08:10;;;;;;;14.48;4.00;;;15.90;79.60;;;;;;5073675;28;20395;-74
2022/11/10 10:10:38;;;;;;;15.18;3.83;;;16.00;79.40;;;;;;5065439;28;20024;-75
2022/11/10 10:13:45;;;;;;;12.15;3.70;;;16.00;79.30;;;;;;5064226;28;20032;-76
2022/11/10 10:16:46;;;;;;;9.75;3.70;;;16.00;79.30;;;;;;5030681;28;20492;-75
2022/11/10 10:19:40;;;;;;;11.63;3.88;;;16.00;79.30;;;;;;5055237;28;20103;-74
2022/11/10 10:22:32;;;;;;;15.75;4.13;;;16.00;79.30;;;;;;5050959;28;20028;-75
2022/11/10 10:25:02;;;;;;;11.23;3.85;;;16.00;79.10;;;;;;5059247;28;20046;-75
2022/11/10 10:27:30;;;;;;;9.95;3.22;;;16.00;79.20;;;;;;5067959;28;20464;-75
2022/11/10 10:29:56;;;;;;;9.88;3.83;;;16.00;79.10;;;;;;5068722;28;20028;-75
2022/11/10 10:32:21;;;;;;;10.95;3.50;;;16.10;78.90;;;;;;5063335;28;20028;-76
2022/11/10 10:34:47;;;;;;;9.65;3.38;;;16.10;78.60;;;;;;5049417;28;20031;-75
2022/11/10 10:37:37;;;;;;;10.27;3.45;;;16.10;78.50;;;;;;5067361;28;20032;-75
2022/11/10 10:40:03;;;;;;;9.00;2.90;;;16.20;78.40;;;;;;5048269;28;20029;-75
2022/11/10 10:42:35;;;;;;;12.05;3.72;;;16.20;78.70;;;;;;5072085;28;20131;-74
2022/11/10 10:45:15;;;;;;;9.90;3.67;;;16.20;78.60;;;;;;5070543;28;20111;-74
2022/11/10 10:47:42;;;;;;;11.02;3.47;;;16.10;78.50;;;;;;5058385;28;20054;-75
2022/11/10 10:50:25;;;;;;;9.20;3.25;;;16.30;78.60;;;;;;5067107;28;20039;-75
2022/11/10 10:53:18;;;;;;;11.88;3.70;;;16.30;78.80;;;;;;5067802;28;20025;-74
2022/11/10 10:55:58;;;;;;;9.13;2.97;;;16.30;78.80;;;;;;5058207;28;20079;-74
2022/11/10 10:58:47;;;;;;;8.95;2.78;;;16.30;78.70;;;;;;5067235;28;20028;-74
2022/11/10 11:01:15;;;;;;;7.43;2.95;;;16.20;78.70;;;;;;5061687;28;20094;-74
2022/11/10 11:03:44;;;;;;;11.65;2.90;;;16.20;78.90;;;;;;5050444;28;20032;-74
2022/11/10 11:06:15;;;;;;;8.48;2.80;;;16.20;78.80;;;;;;5068024;28;20024;-74
2022/11/10 11:09:10;;;;;;;;;;;16.20;78.60;;;;;;5066396;28;20855;-76
2022/11/10 11:11:38;;;;;;;11.20;2.80;;;16.20;78.70;;;;;;5065808;28;19904;-74
2022/11/10 11:14:15;;;;;;;6.15;2.30;;;16.20;78.70;;;;;;5066582;28;20049;-74
2022/11/10 11:16:53;;;;;;;8.25;2.60;;;16.20;78.80;;;;;;5068770;28;20115;-74
2022/11/10 11:19:21;;;;;;;8.38;2.40;;;16.20;78.80;;;;;;5072801;28;20021;-74
2022/11/10 11:22:11;;;;;;;10.07;2.80;;;16.10;78.50;;;;;;5064248;28;20039;-75
2022/11/10 11:24:50;;;;;;;10.77;2.88;;;16.10;78.80;;;;;;5061761;28;20071;-75
2022/11/10 11:27:47;;;;;;;7.90;2.78;;;16.10;78.80;;;;;;5058745;28;20107;-73
2022/11/10 11:30:21;;;;;;;10.88;3.38;;;16.10;78.90;;;;;;5053040;28;20029;-74
2022/11/10 11:33:28;;;;;;;10.27;2.58;;;16.10;78.90;;;;;;5050168;28;20119;-75
2022/11/10 11:36:34;;;;;;;10.98;2.88;;;16.10;79.00;;;;;;5062374;28;20025;-73
2022/11/10 11:39:25;;;;;;;9.68;2.28;;;16.10;78.90;;;;;;5035526;28;20029;-75
2022/11/10 11:42:25;;;;;;;10.48;2.85;;;16.10;78.90;;;;;;5049043;28;20037;-73
2022/11/10 11:45:11;;;;;;;10.05;2.60;;;16.10;79.10;;;;;;5058532;28;20507;-74
2022/11/10 11:48:09;;;;;;;10.05;3.00;;;16.10;79.10;;;;;;5040064;28;20748;-74
2022/11/10 11:50:43;;;;;;;7.97;2.55;;;16.00;79.20;;;;;;5041396;28;20147;-75
2022/11/10 11:53:45;;;;;;;10.73;2.90;;;16.00;79.10;;;;;;5058575;28;20076;-74
2022/11/10 11:56:40;;;;;;;9.25;2.15;;;16.00;79.00;;;;;;5064031;28;20028;-75
2022/11/10 11:59:50;;;;;;;12.80;2.92;;;16.00;78.80;;;;;;5040303;28;20127;-76
2022/11/10 12:02:34;;;;;;;9.32;2.42;;;16.10;79.00;;;;;;5043999;28;20021;-75
2022/11/10 12:05:14;;;;;;;9.80;2.65;;;16.00;79.10;;;;;;5032695;28;20024;-75
2022/11/10 12:08:14;;;;;;;9.45;2.47;;;16.00;79.20;;;;;;5058924;28;20508;-74
2022/11/10 12:10:49;;;;;;;;;;;16.10;79.40;;;;;;5053972;28;20468;-75
2022/11/10 12:13:40;;;;;;;10.13;2.53;;;16.00;79.30;;;;;;5060215;28;20295;-74
2022/11/10 12:16:14;;;;;;;9.57;2.80;;;16.10;79.40;;;;;;5055672;28;20032;-74
2022/11/10 12:18:49;;;;;;;7.43;2.20;;;16.10;79.30;;;;;;5057957;28;20028;-74
2022/11/10 12:21:33;;;;;;;8.07;2.53;;;16.20;79.30;;;;;;5074868;28;20046;-74
2022/11/10 12:24:18;;;;;;;8.75;2.05;;;16.10;79.30;;;;;;5088024;28;20028;-74
2022/11/10 12:26:57;;;;;;;9.98;2.42;;;16.20;79.20;;;;;;5068792;28;20117;-75
2022/11/10 12:29:53;;;;;;;11.77;2.50;;;16.20;79.20;;;;;;5080218;28;20301;-80
2022/11/10 12:32:32;;;;;;;9.63;2.55;;;16.20;79.20;;;;;;5052808;28;20198;-74
2022/11/10 12:35:22;;;;;;;12.90;2.47;;;16.20;79.20;;;;;;5058606;28;20060;-73
2022/11/10 12:37:54;;;;;;;8.00;2.45;;;16.30;79.20;;;;;;5046644;28;20028;-75
2022/11/10 12:40:36;;;;;;;9.02;2.28;;;16.30;79.20;;;;;;5054078;28;20029;-73
2022/11/10 12:43:05;;;;;;;13.18;2.25;;;16.20;79.00;;;;;;5057838;28;20032;-76
2022/11/10 12:45:47;;;;;;;8.60;2.40;;;16.20;79.00;;;;;;5062346;28;20538;-74
2022/11/10 12:48:15;;;;;;;11.55;2.40;;;16.20;79.00;;;;;;5060206;28;20032;-74
2022/11/10 12:50:49;;;;;;;10.95;2.30;;;16.20;78.90;;;;;;5044691;28;20066;-78
2022/11/10 12:53:29;;;;;;;9.95;2.30;;;16.20;79.00;;;;;;5061529;28;20020;-74
2022/11/10 12:56:17;;;;;;;13.35;2.38;;;16.20;79.10;;;;;;5055766;28;20631;-74
2022/11/10 12:58:42;;;;;;;7.15;2.22;;;16.20;79.30;;;;;;5066011;28;20407;-74
2022/11/10 13:01:17;;;;;;;8.23;2.20;;;16.20;79.40;;;;;;5065779;28;20029;-73
2022/11/10 13:03:56;;;;;;;8.30;2.30;;;16.10;79.50;;;;;;5054848;28;20075;-75
2022/11/10 13:06:31;;;;;;;7.45;1.88;;;16.10;79.60;;;;;;5056435;28;20056;-74
2022/11/10 13:08:58;;;;;;;10.32;2.22;;;16.10;79.60;;;;;;5060298;28;20056;-76
2022/11/10 13:11:35;;;;;;;8.50;2.00;;;16.10;79.70;;;;;;5065334;28;20106;-73
2022/11/10 13:14:26;;;;;;;9.40;2.15;;;16.10;79.70;;;;;;5068228;28;20035;-74